Time;durP1;ratioP1;P1;durP2;ratioP2;P2;SDS_P1;SDS_P2;PMS_P1;PMS_P2;Temp;Humidity;BMP_temperature;BMP_pressure;BME280_temperature;BME280_humidity;BME280_pressure;Samples;Min_cycle;Max_cycle;Signal;HPM_P1;HPM_P2
2021/12/03 00:00:49;;;;;;;4.75;2.55;;;1.40;99.90;;;;;;5039268;28;20407;-67
2021/12/03 00:03:15;;;;;;;6.65;2.67;;;1.40;99.90;;;;;;5039500;28;20048;-67
2021/12/03 00:05:41;;;;;;;7.50;3.45;;;1.40;99.90;;;;;;5036237;28;20041;-67
2021/12/03 00:08:07;;;;;;;8.75;3.80;;;1.40;99.90;;;;;;5037964;28;20512;-67
2021/12/03 00:10:35;;;;;;;8.73;3.72;;;1.50;99.90;;;;;;5049102;28;20391;-67
2021/12/03 00:13:01;;;;;;;9.82;3.78;;;1.40;99.90;;;;;;5038619;28;20041;-68
2021/12/03 00:15:27;;;;;;;6.50;3.30;;;1.40;99.90;;;;;;5047327;28;20458;-67
2021/12/03 00:17:54;;;;;;;9.10;4.05;;;1.50;99.90;;;;;;5017034;28;20053;-68
2021/12/03 00:20:22;;;;;;;8.27;3.72;;;1.50;99.90;;;;;;5052049;28;20148;-68
2021/12/03 00:22:51;;;;;;;10.13;4.25;;;1.50;99.90;;;;;;5018791;28;20056;-67
2021/12/03 00:25:17;;;;;;;7.78;4.53;;;1.40;99.90;;;;;;5037172;28;20389;-67
2021/12/03 00:27:43;;;;;;;10.07;5.28;;;1.40;99.90;;;;;;5036139;28;20075;-67
2021/12/03 00:30:11;;;;;;;7.78;4.60;;;1.40;99.90;;;;;;5038027;28;20048;-67
2021/12/03 00:32:37;;;;;;;9.70;5.82;;;1.40;99.90;;;;;;5033195;28;20045;-67
2021/12/03 00:35:05;;;;;;;10.15;6.22;;;1.30;99.90;;;;;;5032498;28;20511;-67
2021/12/03 00:37:30;;;;;;;9.90;6.32;;;1.30;99.90;;;;;;5031997;28;20519;-67
2021/12/03 00:39:56;;;;;;;11.75;6.97;;;1.30;99.90;;;;;;5043383;28;20068;-67
2021/12/03 00:42:23;;;;;;;10.48;7.13;;;1.30;99.90;;;;;;5044636;28;20105;-67
2021/12/03 00:44:55;;;;;;;12.48;6.30;;;1.30;99.90;;;;;;5041225;28;20060;-67
2021/12/03 00:47:21;;;;;;;10.75;6.80;;;1.30;99.90;;;;;;5033177;28;20033;-67
2021/12/03 00:49:47;;;;;;;15.50;7.68;;;1.30;99.90;;;;;;5044392;28;20049;-67
2021/12/03 00:52:13;;;;;;;11.82;7.97;;;1.30;99.90;;;;;;5040767;28;20042;-67
2021/12/03 00:54:39;;;;;;;14.05;8.15;;;1.30;99.90;;;;;;5032600;28;20056;-67
2021/12/03 00:57:05;;;;;;;12.63;7.50;;;1.30;99.90;;;;;;5038796;28;20404;-67
2021/12/03 00:59:30;;;;;;;13.30;7.95;;;1.30;99.90;;;;;;5049778;28;20065;-69
2021/12/03 01:01:57;;;;;;;15.48;8.48;;;1.30;99.90;;;;;;5035491;28;20203;-67
2021/12/03 01:04:22;;;;;;;13.48;8.20;;;1.30;99.90;;;;;;5048854;28;20037;-67
2021/12/03 01:06:48;;;;;;;12.75;8.75;;;1.30;99.90;;;;;;5036164;28;20107;-67
2021/12/03 01:09:14;;;;;;;11.23;8.18;;;1.30;99.90;;;;;;5032041;28;20048;-67
2021/12/03 01:11:41;;;;;;;13.95;9.18;;;1.30;99.90;;;;;;5034699;28;20052;-67
2021/12/03 01:14:07;;;;;;;12.98;8.30;;;1.30;99.90;;;;;;5038264;28;20102;-67
2021/12/03 01:16:34;;;;;;;13.32;8.65;;;1.30;99.90;;;;;;5036877;28;20052;-67
2021/12/03 01:19:00;;;;;;;15.65;9.13;;;1.30;99.90;;;;;;5038554;28;20048;-67
2021/12/03 01:21:27;;;;;;;13.38;8.85;;;1.30;99.90;;;;;;5033179;28;20364;-67
2021/12/03 01:23:53;;;;;;;16.23;9.90;;;1.30;99.90;;;;;;5034020;28;20044;-67
2021/12/03 01:26:20;;;;;;;12.95;9.20;;;1.40;99.90;;;;;;5036585;28;20404;-67
2021/12/03 01:28:46;;;;;;;13.63;8.02;;;1.40;99.90;;;;;;5037964;28;20170;-67
2021/12/03 01:31:13;;;;;;;12.45;8.30;;;1.40;99.90;;;;;;5035034;28;20412;-67
2021/12/03 01:33:39;;;;;;;11.55;8.07;;;1.40;99.90;;;;;;5030180;28;20045;-67
2021/12/03 01:36:05;;;;;;;14.55;9.65;;;1.40;99.90;;;;;;5033663;28;20049;-67
2021/12/03 01:38:31;;;;;;;14.25;7.47;;;1.40;99.90;;;;;;5030340;28;20048;-67
2021/12/03 01:40:56;;;;;;;14.38;8.88;;;1.40;99.90;;;;;;5039475;28;20099;-67
2021/12/03 01:43:24;;;;;;;13.98;8.95;;;1.40;99.90;;;;;;5035232;28;20129;-67
2021/12/03 01:45:59;;;;;;;13.25;9.20;;;1.40;99.90;;;;;;5047420;28;20124;-67
2021/12/03 01:48:25;;;;;;;11.68;8.93;;;1.50;99.90;;;;;;5037679;28;20049;-67
2021/12/03 01:50:51;;;;;;;13.70;9.45;;;1.50;99.90;;;;;;5035758;28;20082;-67
2021/12/03 01:53:21;;;;;;;12.27;8.30;;;1.50;99.90;;;;;;5039094;28;20091;-68
2021/12/03 01:55:48;;;;;;;13.93;9.65;;;1.50;99.90;;;;;;5056219;28;20049;-67
2021/12/03 01:58:15;;;;;;;14.25;9.82;;;1.50;99.90;;;;;;5035352;28;20037;-67
2021/12/03 02:00:48;;;;;;;12.60;8.85;;;1.40;99.90;;;;;;5034929;28;20248;-68
2021/12/03 02:03:15;;;;;;;14.50;9.25;;;1.50;99.90;;;;;;5051171;28;20053;-67
2021/12/03 02:05:42;;;;;;;15.65;10.02;;;1.50;99.90;;;;;;5044066;28;20133;-66
2021/12/03 02:08:08;;;;;;;14.00;9.65;;;1.50;99.90;;;;;;5038903;28;20092;-67
2021/12/03 02:10:35;;;;;;;15.18;10.15;;;1.50;99.90;;;;;;5035028;28;20045;-67
2021/12/03 02:13:00;;;;;;;15.23;10.18;;;1.50;99.90;;;;;;5039960;28;21744;-68
2021/12/03 02:15:26;;;;;;;15.60;10.48;;;1.60;99.90;;;;;;5034906;28;20056;-67
2021/12/03 02:17:52;;;;;;;13.57;10.30;;;1.50;99.90;;;;;;5034323;28;20135;-68
2021/12/03 02:20:18;;;;;;;13.32;9.55;;;1.50;99.90;;;;;;5037697;28;20054;-67
2021/12/03 02:22:44;;;;;;;14.07;10.05;;;1.60;99.90;;;;;;5032855;28;20037;-67
2021/12/03 02:25:14;;;;;;;14.68;10.25;;;1.60;99.90;;;;;;5036183;28;20049;-67
2021/12/03 02:27:40;;;;;;;12.82;9.10;;;1.60;99.90;;;;;;5033968;28;20481;-67
2021/12/03 02:30:07;;;;;;;14.13;9.70;;;1.60;99.90;;;;;;5038422;28;20037;-67
2021/12/03 02:32:34;;;;;;;16.58;9.45;;;1.60;99.90;;;;;;5036002;28;20049;-68
2021/12/03 02:34:59;;;;;;;13.40;9.13;;;1.60;99.90;;;;;;5022015;28;20036;-67
2021/12/03 02:37:25;;;;;;;16.15;9.70;;;1.60;99.90;;;;;;5035256;28;21058;-67
2021/12/03 02:39:51;;;;;;;15.45;10.02;;;1.60;99.90;;;;;;5034873;28;20053;-68
2021/12/03 02:42:16;;;;;;;12.27;9.45;;;1.60;99.90;;;;;;5035090;28;20064;-67
2021/12/03 02:44:44;;;;;;;16.67;10.80;;;1.60;99.90;;;;;;5040299;28;20053;-67
2021/12/03 02:47:10;;;;;;;12.75;8.90;;;1.60;99.90;;;;;;5040391;28;20044;-67
2021/12/03 02:49:38;;;;;;;13.63;8.93;;;1.60;99.90;;;;;;5033527;28;20449;-67
2021/12/03 02:52:04;;;;;;;13.45;10.15;;;1.70;99.90;;;;;;5049548;28;20037;-67
2021/12/03 02:54:30;;;;;;;12.45;9.45;;;1.60;99.90;;;;;;5035258;28;20033;-67
2021/12/03 02:56:55;;;;;;;16.13;10.00;;;1.60;99.90;;;;;;5033766;28;20704;-67
2021/12/03 02:59:21;;;;;;;15.25;10.15;;;1.60;99.90;;;;;;5035182;28;20106;-67
2021/12/03 03:01:46;;;;;;;12.77;9.50;;;1.60;99.90;;;;;;5036051;28;20049;-67
2021/12/03 03:04:12;;;;;;;14.27;9.45;;;1.60;99.90;;;;;;5035006;28;20095;-67
2021/12/03 03:06:37;;;;;;;13.80;9.07;;;1.60;99.90;;;;;;5034436;28;20052;-67
2021/12/03 03:09:08;;;;;;;13.75;10.10;;;1.70;99.90;;;;;;5039038;28;20081;-67
2021/12/03 03:11:34;;;;;;;13.82;9.80;;;1.70;99.90;;;;;;5046307;28;20448;-67
2021/12/03 03:14:00;;;;;;;15.57;9.05;;;1.70;99.90;;;;;;5057653;28;20046;-67
2021/12/03 03:16:27;;;;;;;13.82;9.27;;;1.70;99.90;;;;;;5038931;28;20175;-67
2021/12/03 03:18:52;;;;;;;14.38;9.38;;;1.70;99.90;;;;;;5047269;28;20061;-67
2021/12/03 03:21:18;;;;;;;16.08;9.93;;;1.70;99.90;;;;;;5039340;28;20041;-67
2021/12/03 03:23:44;;;;;;;13.63;9.82;;;1.70;99.90;;;;;;5037396;28;20469;-67
2021/12/03 03:26:10;;;;;;;11.07;9.27;;;1.70;99.90;;;;;;5039054;28;20049;-67
2021/12/03 03:28:36;;;;;;;13.18;9.00;;;1.70;99.90;;;;;;5037690;28;20053;-67
2021/12/03 03:31:03;;;;;;;13.30;9.60;;;1.70;99.90;;;;;;5047296;28;20151;-67
2021/12/03 03:33:29;;;;;;;13.52;10.20;;;1.70;99.90;;;;;;5040562;28;20041;-67
2021/12/03 03:35:55;;;;;;;16.27;10.43;;;1.80;99.90;;;;;;5037921;28;20045;-67
2021/12/03 03:38:21;;;;;;;13.85;10.32;;;1.80;99.90;;;;;;5040310;28;20049;-67
2021/12/03 03:40:47;;;;;;;14.35;10.35;;;1.80;99.90;;;;;;5039915;28;20563;-67
2021/12/03 03:43:14;;;;;;;16.10;10.60;;;1.70;99.90;;;;;;5044568;28;20045;-67
2021/12/03 03:45:41;;;;;;;16.17;10.50;;;1.70;99.90;;;;;;5043505;28;20041;-67
2021/12/03 03:48:07;;;;;;;15.57;10.10;;;1.70;99.90;;;;;;5041946;28;20041;-67
2021/12/03 03:50:32;;;;;;;14.70;10.15;;;1.80;99.90;;;;;;5050958;28;20050;-67
2021/12/03 03:52:58;;;;;;;14.25;10.48;;;1.80;99.90;;;;;;5019035;28;20143;-67
2021/12/03 03:55:24;;;;;;;16.85;9.85;;;1.70;99.90;;;;;;5050863;28;20428;-67
2021/12/03 03:57:53;;;;;;;14.27;9.60;;;1.80;99.90;;;;;;5039072;28;20132;-67
2021/12/03 04:00:23;;;;;;;18.55;10.77;;;1.70;99.90;;;;;;5034533;28;20480;-67
2021/12/03 04:02:49;;;;;;;13.32;9.23;;;1.80;99.90;;;;;;5038634;28;20524;-67
2021/12/03 04:05:15;;;;;;;12.20;9.15;;;1.80;99.90;;;;;;5038599;28;20132;-67
2021/12/03 04:07:41;;;;;;;13.32;8.95;;;1.80;99.90;;;;;;5038044;28;20045;-67
2021/12/03 04:10:08;;;;;;;11.77;8.63;;;1.80;99.90;;;;;;5035276;28;20049;-67
2021/12/03 04:12:35;;;;;;;11.43;7.82;;;1.90;99.90;;;;;;5036864;28;20044;-67
2021/12/03 04:15:01;;;;;;;13.02;8.73;;;1.80;99.90;;;;;;5037796;28;20048;-67
2021/12/03 04:17:27;;;;;;;12.82;8.15;;;1.80;99.90;;;;;;5044762;28;20531;-67
2021/12/03 04:19:52;;;;;;;14.63;9.00;;;1.80;99.90;;;;;;5037571;28;20046;-67
2021/12/03 04:22:23;;;;;;;14.80;8.60;;;1.80;99.90;;;;;;5049602;28;20041;-67
2021/12/03 04:24:50;;;;;;;12.93;8.65;;;1.80;99.90;;;;;;5047891;28;20514;-67
2021/12/03 04:27:16;;;;;;;13.02;8.50;;;1.80;99.90;;;;;;5046394;28;20137;-67
2021/12/03 04:29:41;;;;;;;12.20;8.93;;;1.80;99.90;;;;;;5039659;28;20448;-67
2021/12/03 04:32:08;;;;;;;13.82;8.80;;;1.80;99.90;;;;;;5034679;28;20060;-67
2021/12/03 04:34:34;;;;;;;12.25;8.75;;;1.80;99.90;;;;;;5037626;28;20041;-68
2021/12/03 04:37:00;;;;;;;11.52;7.95;;;1.80;99.90;;;;;;5038920;28;20041;-67
2021/12/03 04:39:26;;;;;;;15.75;8.68;;;1.90;99.90;;;;;;5038632;28;20044;-68
2021/12/03 04:41:52;;;;;;;11.23;8.15;;;1.90;99.90;;;;;;5038859;28;20056;-67
2021/12/03 04:44:17;;;;;;;12.52;8.20;;;1.90;99.90;;;;;;5040711;28;20179;-67
2021/12/03 04:46:43;;;;;;;15.32;8.52;;;1.90;99.90;;;;;;5025154;28;20051;-67
2021/12/03 04:49:08;;;;;;;14.18;9.23;;;1.90;99.90;;;;;;5043982;28;20041;-67
2021/12/03 04:51:34;;;;;;;12.30;8.23;;;1.80;99.90;;;;;;5038248;28;20056;-67
2021/12/03 04:53:59;;;;;;;10.75;7.43;;;1.80;99.90;;;;;;5035472;28;20033;-67
2021/12/03 04:56:25;;;;;;;14.23;7.90;;;1.80;99.90;;;;;;5051692;28;20215;-67
2021/12/03 04:58:50;;;;;;;11.40;8.02;;;1.80;99.90;;;;;;5038781;28;20460;-67
2021/12/03 05:01:16;;;;;;;12.93;8.35;;;1.90;99.90;;;;;;5035553;28;20033;-66
2021/12/03 05:03:42;;;;;;;12.65;8.68;;;1.80;99.90;;;;;;5037026;28;20116;-67
2021/12/03 05:06:09;;;;;;;15.27;8.95;;;1.90;99.90;;;;;;5034859;28;20041;-69
2021/12/03 05:08:35;;;;;;;12.40;7.93;;;1.80;99.90;;;;;;5048006;28;20144;-67
2021/12/03 05:11:01;;;;;;;12.15;7.53;;;1.90;99.90;;;;;;5045388;28;20432;-68
2021/12/03 05:13:29;;;;;;;12.38;7.82;;;1.90;99.90;;;;;;5039257;28;20404;-67
2021/12/03 05:15:55;;;;;;;11.98;7.60;;;1.90;99.90;;;;;;5043753;28;20048;-67
2021/12/03 05:18:22;;;;;;;11.75;7.35;;;1.90;99.90;;;;;;5050018;28;20033;-67
2021/12/03 05:20:50;;;;;;;15.75;7.43;;;2.00;99.90;;;;;;5019892;28;20045;-70
2021/12/03 05:23:17;;;;;;;11.40;7.07;;;2.00;99.90;;;;;;5039726;28;20041;-66
2021/12/03 05:25:43;;;;;;;16.02;7.32;;;2.00;99.90;;;;;;5037427;28;20076;-66
2021/12/03 05:28:10;;;;;;;15.90;7.30;;;2.10;99.90;;;;;;5044093;28;20037;-66
2021/12/03 05:30:36;;;;;;;12.52;7.45;;;2.10;99.90;;;;;;5043538;28;20037;-67
2021/12/03 05:33:02;;;;;;;11.05;6.57;;;2.00;99.90;;;;;;5048743;28;20116;-67
2021/12/03 05:35:28;;;;;;;10.65;6.57;;;2.00;99.90;;;;;;5055830;28;20517;-67
2021/12/03 05:37:54;;;;;;;10.15;7.20;;;2.00;99.90;;;;;;5039797;28;20044;-67
2021/12/03 05:40:20;;;;;;;10.88;6.38;;;2.10;99.90;;;;;;5056100;28;20053;-67
2021/12/03 05:42:46;;;;;;;12.38;6.72;;;2.10;99.90;;;;;;5038713;28;20334;-67
2021/12/03 05:45:15;;;;;;;12.27;6.43;;;2.10;99.90;;;;;;5048329;28;20505;-67
2021/12/03 05:47:41;;;;;;;12.85;6.35;;;2.10;99.90;;;;;;5035621;28;20446;-67
2021/12/03 05:50:09;;;;;;;12.40;6.40;;;2.10;99.90;;;;;;5036523;28;20102;-68
2021/12/03 05:52:35;;;;;;;13.65;6.25;;;2.20;99.90;;;;;;5034585;28;20037;-68
2021/12/03 05:55:01;;;;;;;10.75;6.15;;;2.20;99.90;;;;;;5037880;28;20053;-68
2021/12/03 05:57:26;;;;;;;11.55;5.90;;;2.20;99.90;;;;;;5038843;28;20044;-68
2021/12/03 05:59:52;;;;;;;11.40;5.88;;;2.20;99.90;;;;;;5043955;28;20036;-68
2021/12/03 06:02:18;;;;;;;13.23;6.30;;;2.30;99.90;;;;;;5045389;28;20121;-68
2021/12/03 06:04:43;;;;;;;11.43;6.05;;;2.30;99.90;;;;;;5047998;28;20088;-68
2021/12/03 06:07:09;;;;;;;13.38;6.47;;;2.30;99.90;;;;;;5040506;28;20056;-67
2021/12/03 06:09:34;;;;;;;9.70;6.40;;;2.30;99.90;;;;;;5049877;28;20049;-68
2021/12/03 06:12:01;;;;;;;12.73;6.40;;;2.30;99.90;;;;;;5039044;28;20044;-68
2021/12/03 06:14:28;;;;;;;12.55;7.00;;;2.30;99.90;;;;;;5044483;28;20048;-68
2021/12/03 06:16:54;;;;;;;11.75;6.28;;;2.30;99.90;;;;;;5047687;28;20048;-68
2021/12/03 06:19:20;;;;;;;14.68;6.43;;;2.30;99.90;;;;;;5048733;28;20048;-66
2021/12/03 06:21:45;;;;;;;10.15;5.97;;;2.30;99.90;;;;;;5053099;28;20220;-66
2021/12/03 06:24:11;;;;;;;11.85;7.15;;;2.30;99.90;;;;;;5045693;28;20044;-70
2021/12/03 06:26:37;;;;;;;11.52;6.13;;;2.30;99.90;;;;;;5029754;28;20418;-68
2021/12/03 06:29:03;;;;;;;12.45;7.20;;;2.30;99.90;;;;;;5045554;28;20063;-69
2021/12/03 06:31:28;;;;;;;14.60;7.13;;;2.30;99.90;;;;;;5034193;28;20036;-69
2021/12/03 06:33:54;;;;;;;12.77;7.30;;;2.30;99.90;;;;;;5037043;28;20160;-68
2021/12/03 06:36:20;;;;;;;13.35;7.43;;;2.30;99.90;;;;;;5034603;28;20065;-66
2021/12/03 06:38:46;;;;;;;18.17;7.57;;;2.30;99.90;;;;;;5043793;28;20111;-67
2021/12/03 06:41:11;;;;;;;12.32;7.85;;;2.40;99.90;;;;;;5045288;28;20176;-68
2021/12/03 06:43:37;;;;;;;13.93;8.43;;;2.30;99.90;;;;;;5048237;28;20055;-68
2021/12/03 06:46:03;;;;;;;15.80;7.95;;;2.40;99.90;;;;;;5042874;28;20469;-68
2021/12/03 06:48:29;;;;;;;15.18;9.10;;;2.50;99.90;;;;;;5043610;28;20040;-68
2021/12/03 06:54:29;;;;;;;18.02;8.70;;;2.50;99.90;;;;;;5023152;28;20045;-68
2021/12/03 06:56:55;;;;;;;15.25;8.52;;;2.40;99.90;;;;;;5048203;28;20049;-69
2021/12/03 06:59:23;;;;;;;14.60;8.68;;;2.50;99.90;;;;;;5049818;28;20067;-69
2021/12/03 07:01:50;;;;;;;15.57;8.60;;;2.50;99.90;;;;;;5049684;28;20122;-68
2021/12/03 07:04:17;;;;;;;13.73;8.52;;;2.50;99.90;;;;;;5051058;28;20280;-65
2021/12/03 07:06:43;;;;;;;13.50;7.47;;;2.50;99.90;;;;;;5048992;28;20120;-65
2021/12/03 07:09:12;;;;;;;13.57;7.55;;;2.60;99.90;;;;;;5048863;28;20048;-65
2021/12/03 07:11:41;;;;;;;13.25;7.72;;;2.60;99.90;;;;;;5046447;28;20041;-66
2021/12/03 07:14:07;;;;;;;13.20;7.20;;;2.60;99.90;;;;;;5048951;28;20132;-66
2021/12/03 07:16:33;;;;;;;13.00;7.45;;;2.60;99.90;;;;;;5047217;28;20041;-65
2021/12/03 07:18:59;;;;;;;14.23;7.35;;;2.60;99.90;;;;;;5047932;28;20033;-66
2021/12/03 07:21:25;;;;;;;12.80;7.00;;;2.60;99.90;;;;;;5045640;28;20365;-66
2021/12/03 07:23:56;;;;;;;13.45;6.00;;;2.70;99.90;;;;;;5049968;28;20132;-66
2021/12/03 07:26:24;;;;;;;12.95;6.28;;;2.60;99.90;;;;;;5061249;28;20064;-66
2021/12/03 07:32:02;;;;;;;9.65;5.72;;;2.70;99.90;;;;;;5046787;28;20516;-66
2021/12/03 07:34:38;;;;;;;12.32;6.40;;;2.80;99.90;;;;;;5048641;28;20487;-65
2021/12/03 07:38:10;;;;;;;16.60;6.90;;;2.80;99.90;;;;;;5049152;28;20045;-66
2021/12/03 07:40:51;;;;;;;13.57;6.68;;;2.80;99.90;;;;;;4510879;28;15060224;-65
2021/12/03 07:43:50;;;;;;;17.63;8.40;;;2.90;99.90;;;;;;5021348;28;20049;-67
2021/12/03 07:47:26;;;;;;;14.98;8.80;;;2.90;99.90;;;;;;5019074;28;20061;-66
2021/12/03 08:04:23;;;;;;;24.60;13.10;;;3.10;99.90;;;;;;4818282;29;20150;-65
2021/12/03 08:14:44;;;;;;;21.10;12.82;;;3.10;99.90;;;;;;4951054;28;20294;-66
2021/12/03 08:17:47;;;;;;;;;;;;;;;;;;;;;
2021/12/03 08:20:21;;;;;;;19.70;12.52;;;3.20;99.90;;;;;;4971765;28;20055;-66
2021/12/03 08:23:20;;;;;;;;;;;;;;;;;;;;;
2021/12/03 08:26:23;;;;;;;23.98;13.75;;;3.20;99.90;;;;;;4969100;28;20054;-66
2021/12/03 08:29:01;;;;;;;23.17;13.30;;;3.30;99.90;;;;;;4975595;28;20176;-66
2021/12/03 08:32:20;;;;;;;;;;;;;;;;;;;;;
2021/12/03 08:35:28;;;;;;;24.75;13.38;;;3.30;99.90;;;;;;5041235;28;20163;-66
2021/12/03 08:37:57;;;;;;;23.58;13.13;;;3.40;99.90;;;;;;4988501;28;20105;-66
2021/12/03 08:47:00;;;;;;;24.20;12.40;;;3.40;99.90;;;;;;4934520;29;20051;-67
2021/12/03 09:00:14;;;;;;;;;;;;;;;;;;;;;
2021/12/03 09:03:49;;;;;;;23.65;10.48;;;3.60;99.90;;;;;;4973431;28;20524;-65
2021/12/03 09:07:10;;;;;;;21.35;10.20;;;3.60;99.90;;;;;;5044683;28;20348;-66
2021/12/03 09:13:16;;;;;;;19.40;8.73;;;3.70;99.90;;;;;;5017874;28;20145;-66
2021/12/03 09:19:01;;;;;;;;;;;;;;;;;;;;;
2021/12/03 09:22:03;;;;;;;22.35;9.07;;;3.80;99.90;;;;;;5026353;28;20057;-66
2021/12/03 09:25:22;;;;;;;19.10;8.38;;;3.80;99.90;;;;;;4975995;28;20058;-66
2021/12/03 09:28:29;;;;;;;22.75;7.95;;;3.90;99.90;;;;;;5011362;28;20501;-66
2021/12/03 09:32:20;;;;;;;;;;;;;;;;;;;;;
2021/12/03 09:35:23;;;;;;;;;;;;;;;;;;;;;
2021/12/03 09:38:13;;;;;;;20.23;8.07;;;3.90;99.90;;;;;;5001193;28;20439;-66
2021/12/03 09:41:38;;;;;;;18.90;7.32;;;4.00;99.90;;;;;;5004675;28;20057;-66
2021/12/03 09:45:35;;;;;;;15.73;7.07;;;4.00;99.90;;;;;;5005383;28;20112;-68
2021/12/03 09:52:20;;;;;;;14.95;6.43;;;3.90;99.90;;;;;;4938920;28;20506;-65
2021/12/03 09:55:42;;;;;;;17.27;6.95;;;4.10;99.90;;;;;;4873906;29;20186;-65
2021/12/03 10:18:33;;;;;;;16.05;5.93;;;4.10;99.90;;;;;;5041023;28;20163;-67
2021/12/03 10:35:36;;;;;;;14.85;5.47;;;4.20;99.90;;;;;;4871038;29;20250;-66
2021/12/03 10:42:27;;;;;;;19.42;6.38;;;4.30;99.90;;;;;;4848859;28;20121;-66
2021/12/03 10:48:59;;;;;;;15.68;5.20;;;4.30;99.90;;;;;;4934721;28;20062;-66
2021/12/03 10:52:47;;;;;;;;;;;;;;;;;;;;;
2021/12/03 10:59:45;;;;;;;16.10;5.47;;;4.30;99.90;;;;;;4889650;29;20095;-66
2021/12/03 11:20:00;;;;;;;;;;;4.50;99.90;;;;;;4900094;29;20067;-65
2021/12/03 11:55:36;;;;;;;16.42;3.47;;;4.30;99.90;;;;;;5049003;28;20052;-65
2021/12/03 12:45:16;;;;;;;9.23;4.03;;;4.10;99.90;;;;;;5048993;28;20057;-66
2021/12/03 13:31:01;;;;;;;15.13;5.05;;;4.50;99.90;;;;;;5002636;28;20052;-65
2021/12/03 14:45:40;;;;;;;9.82;4.22;;;4.80;99.90;;;;;;5046963;28;20567;-67
2021/12/03 14:50:58;;;;;;;11.05;4.47;;;4.70;99.90;;;;;;5048550;28;20085;-66
2021/12/03 14:56:14;;;;;;;8.38;4.13;;;4.80;99.90;;;;;;5047487;28;20552;-67
2021/12/03 15:01:58;;;;;;;10.52;4.82;;;4.70;99.90;;;;;;5045902;28;20125;-66
2021/12/03 15:07:15;;;;;;;10.98;5.47;;;4.70;99.90;;;;;;5040215;28;20135;-66
2021/12/03 15:09:43;;;;;;;9.60;4.75;;;4.70;99.90;;;;;;5047100;28;20563;-66
2021/12/03 15:12:35;;;;;;;9.95;5.03;;;4.70;99.90;;;;;;5048711;28;20093;-67
2021/12/03 15:21:11;;;;;;;7.75;4.72;;;4.80;99.90;;;;;;5046851;28;20057;-66
2021/12/03 15:23:07;;;;;;;7.95;5.13;;;4.70;99.90;;;;;;5029752;28;20568;-66
2021/12/03 15:28:47;;;;;;;11.70;6.40;;;4.70;99.90;;;;;;5050334;28;20053;-66
2021/12/03 15:33:49;;;;;;;10.57;5.57;;;4.70;99.90;;;;;;5050003;28;20049;-66
2021/12/03 15:36:21;;;;;;;11.05;5.72;;;4.70;99.90;;;;;;5051300;28;20045;-66
2021/12/03 15:39:02;;;;;;;10.93;5.80;;;4.70;99.90;;;;;;5049093;28;20472;-66
2021/12/03 15:51:59;;;;;;;11.80;6.07;;;4.80;99.90;;;;;;5049888;28;20131;-66
2021/12/03 15:58:10;;;;;;;12.55;7.07;;;4.70;99.90;;;;;;5048997;28;20580;-67
2021/12/03 16:06:27;;;;;;;8.13;5.90;;;4.80;99.90;;;;;;5050253;28;20084;-64
2021/12/03 16:08:55;;;;;;;11.65;6.40;;;4.80;99.90;;;;;;5050372;28;20040;-64
2021/12/03 16:53:12;;;;;;;11.65;8.52;;;4.90;99.90;;;;;;5046092;28;20049;-64
2021/12/03 16:55:38;;;;;;;12.07;9.00;;;4.90;99.90;;;;;;5046168;28;20132;-65
2021/12/03 16:58:03;;;;;;;11.90;9.20;;;4.90;99.90;;;;;;5049342;28;20141;-65
2021/12/03 17:16:20;;;;;;;14.20;10.50;;;4.90;99.90;;;;;;5047094;28;20060;-65
2021/12/03 17:32:22;;;;;;;15.23;12.00;;;5.00;99.90;;;;;;5042716;28;20188;-64
2021/12/03 17:48:45;;;;;;;20.13;15.98;;;4.90;99.90;;;;;;5043738;28;20073;-65
2021/12/03 17:51:06;;;;;;;21.85;14.90;;;5.00;99.90;;;;;;5037174;28;20049;-65
2021/12/03 17:56:10;;;;;;;19.98;14.93;;;5.00;99.90;;;;;;5044808;28;20077;-66
2021/12/03 17:58:37;;;;;;;50.25;40.30;;;5.00;99.90;;;;;;5043355;28;20041;-66
2021/12/03 18:01:21;;;;;;;23.40;16.60;;;5.00;99.90;;;;;;5047112;28;20097;-66
2021/12/03 18:12:04;;;;;;;23.83;17.05;;;5.00;99.90;;;;;;5048888;28;20120;-65
2021/12/03 18:44:01;;;;;;;25.77;17.83;;;5.00;99.90;;;;;;5054536;28;20128;-65
2021/12/03 18:51:48;;;;;;;22.85;16.23;;;5.00;99.90;;;;;;5044204;28;20618;-65
2021/12/03 18:56:53;;;;;;;24.05;16.80;;;5.00;99.90;;;;;;5045738;28;20061;-65
2021/12/03 18:59:19;;;;;;;23.52;17.83;;;5.10;99.90;;;;;;5043513;28;20454;-65
2021/12/03 19:01:45;;;;;;;22.45;17.02;;;5.10;99.90;;;;;;5046420;28;20048;-65
2021/12/03 19:07:00;;;;;;;23.42;16.80;;;5.10;99.90;;;;;;5048760;28;20052;-65
2021/12/03 19:09:30;;;;;;;21.30;16.70;;;5.10;99.90;;;;;;5046516;28;20490;-65
2021/12/03 19:12:00;;;;;;;23.05;17.23;;;5.10;99.90;;;;;;5047095;28;20095;-65
2021/12/03 19:14:30;;;;;;;25.83;17.25;;;5.10;99.90;;;;;;5049180;28;20052;-64
2021/12/03 19:16:56;;;;;;;25.38;16.48;;;5.10;99.90;;;;;;5044476;28;20797;-64
2021/12/03 19:19:22;;;;;;;23.63;16.48;;;5.10;99.90;;;;;;5047743;28;20036;-65
2021/12/03 19:21:48;;;;;;;24.73;17.88;;;5.10;99.90;;;;;;5047711;28;20056;-65
2021/12/03 19:24:16;;;;;;;23.13;17.23;;;5.10;99.90;;;;;;5042480;28;20044;-65
2021/12/03 19:26:43;;;;;;;23.35;16.90;;;5.10;99.90;;;;;;5041524;28;20029;-65
2021/12/03 19:29:12;;;;;;;25.48;17.98;;;5.10;99.90;;;;;;5037860;28;20049;-64
2021/12/03 19:31:39;;;;;;;25.63;17.92;;;5.10;99.90;;;;;;5040827;28;20049;-65
2021/12/03 19:34:05;;;;;;;23.65;17.35;;;5.10;99.90;;;;;;5041849;28;20067;-65
2021/12/03 19:36:32;;;;;;;22.58;16.30;;;5.10;99.90;;;;;;5040714;28;20029;-64
2021/12/03 19:38:59;;;;;;;24.52;17.05;;;5.10;99.90;;;;;;5046437;28;20069;-64
2021/12/03 19:41:37;;;;;;;23.45;16.15;;;5.20;99.90;;;;;;5046670;28;20124;-65
2021/12/03 19:44:09;;;;;;;24.98;17.13;;;5.20;99.90;;;;;;5045705;28;20052;-65
2021/12/03 19:46:37;;;;;;;26.80;18.45;;;5.20;99.90;;;;;;5048223;28;20041;-64
2021/12/03 19:49:13;;;;;;;27.10;18.65;;;5.20;99.90;;;;;;5047321;28;20684;-65
2021/12/03 19:51:48;;;;;;;25.40;17.50;;;5.20;99.90;;;;;;5044910;28;20071;-65
2021/12/03 19:54:15;;;;;;;26.75;18.73;;;5.20;99.90;;;;;;5057012;28;20041;-65
2021/12/03 19:56:42;;;;;;;26.38;18.92;;;5.20;99.90;;;;;;5040159;28;20592;-65
2021/12/03 19:59:09;;;;;;;23.98;16.35;;;5.20;99.90;;;;;;5048373;28;20541;-66
2021/12/03 20:01:35;;;;;;;27.95;18.63;;;5.20;99.90;;;;;;5048788;28;20029;-65
2021/12/03 20:04:03;;;;;;;27.88;18.58;;;5.20;99.90;;;;;;5050229;28;20143;-65
2021/12/03 20:06:29;;;;;;;24.20;16.63;;;5.20;99.90;;;;;;5063518;28;20060;-65
2021/12/03 20:08:57;;;;;;;26.13;18.00;;;5.20;99.90;;;;;;5051320;28;20044;-65
2021/12/03 20:11:37;;;;;;;26.13;18.08;;;5.20;99.90;;;;;;5043878;28;20620;-65
2021/12/03 20:14:02;;;;;;;25.73;18.33;;;5.20;99.90;;;;;;5047588;28;20487;-66
2021/12/03 20:19:22;;;;;;;29.92;19.33;;;5.20;99.90;;;;;;5025786;28;20103;-65
2021/12/03 20:21:53;;;;;;;26.42;17.70;;;5.20;99.90;;;;;;5049440;28;20064;-65
2021/12/03 20:24:29;;;;;;;26.50;17.80;;;5.20;99.90;;;;;;5046242;28;21478;-65
2021/12/03 20:27:10;;;;;;;24.00;17.00;;;5.20;99.90;;;;;;5045561;28;20472;-66
2021/12/03 20:37:56;;;;;;;26.00;17.80;;;5.20;99.90;;;;;;5037418;28;20106;-65
2021/12/03 20:40:28;;;;;;;26.25;17.83;;;5.20;99.90;;;;;;5041213;28;20041;-65
2021/12/03 20:43:11;;;;;;;24.88;16.83;;;5.20;99.90;;;;;;5047046;28;20496;-65
2021/12/03 20:51:09;;;;;;;24.67;16.80;;;5.10;99.90;;;;;;5044723;28;20041;-66
2021/12/03 20:53:40;;;;;;;22.88;16.10;;;5.20;99.90;;;;;;5033844;28;20128;-64
2021/12/03 20:59:30;;;;;;;23.48;15.95;;;5.20;99.90;;;;;;5044655;28;20045;-65
2021/12/03 21:09:51;;;;;;;23.05;15.80;;;5.20;99.90;;;;;;5036651;28;20176;-65
2021/12/03 21:15:22;;;;;;;20.42;15.13;;;5.20;99.90;;;;;;5043069;28;20434;-65
2021/12/03 21:20:28;;;;;;;22.07;15.97;;;5.30;99.90;;;;;;5038512;28;20111;-65
2021/12/03 21:23:01;;;;;;;21.80;16.13;;;5.30;99.90;;;;;;5040408;28;20049;-64
2021/12/03 21:25:32;;;;;;;21.75;15.32;;;5.30;99.90;;;;;;5040123;28;20037;-64
2021/12/03 21:39:12;;;;;;;22.70;16.02;;;5.30;99.90;;;;;;5036059;28;20518;-65
2021/12/03 21:41:39;;;;;;;22.33;15.50;;;5.30;99.90;;;;;;5038485;28;20416;-66
2021/12/03 21:44:08;;;;;;;23.40;16.52;;;5.30;99.90;;;;;;5039827;28;20128;-65
2021/12/03 21:46:37;;;;;;;21.95;15.85;;;5.40;99.90;;;;;;5036643;28;20490;-65
2021/12/03 21:49:05;;;;;;;23.58;16.98;;;5.30;99.90;;;;;;5040166;28;20666;-65
2021/12/03 21:51:31;;;;;;;24.40;16.40;;;5.40;99.90;;;;;;5046459;28;20068;-65
2021/12/03 21:53:57;;;;;;;23.55;16.23;;;5.30;99.90;;;;;;5039874;28;20105;-64
2021/12/03 21:56:24;;;;;;;22.77;16.77;;;5.40;99.90;;;;;;5035059;28;20037;-66
2021/12/03 21:58:50;;;;;;;23.63;16.70;;;5.30;99.90;;;;;;5037632;28;20048;-65
2021/12/03 22:01:16;;;;;;;23.40;17.02;;;5.30;99.90;;;;;;5037754;28;20041;-64
2021/12/03 22:03:42;;;;;;;23.52;16.23;;;5.40;99.90;;;;;;5036489;28;20106;-64
2021/12/03 22:06:08;;;;;;;24.42;16.73;;;5.40;99.90;;;;;;5040642;28;20064;-65
2021/12/03 22:08:34;;;;;;;22.67;15.45;;;5.40;99.90;;;;;;5038420;28;20169;-65
2021/12/03 22:11:00;;;;;;;23.45;16.83;;;5.40;99.90;;;;;;5038974;28;20151;-65
2021/12/03 22:13:26;;;;;;;24.45;17.20;;;5.40;99.90;;;;;;5032410;28;20105;-65